sensor_id;sensor_type;location;lat;lon;timestamp;temperature;humidity
957;DHT22;465;48.802;9.224;2022-08-19T00:01:56;23.50;93.20
957;DHT22;465;48.802;9.224;2022-08-19T00:04:25;23.50;93.30
957;DHT22;465;48.802;9.224;2022-08-19T00:06:53;23.50;93.50
957;DHT22;465;48.802;9.224;2022-08-19T00:09:22;23.50;93.50
957;DHT22;465;48.802;9.224;2022-08-19T00:11:49;23.50;93.60
957;DHT22;465;48.802;9.224;2022-08-19T00:14:17;23.50;93.80
957;DHT22;465;48.802;9.224;2022-08-19T00:16:46;23.40;93.80
957;DHT22;465;48.802;9.224;2022-08-19T00:19:14;23.40;94.10
957;DHT22;465;48.802;9.224;2022-08-19T00:21:41;23.30;94.20
957;DHT22;465;48.802;9.224;2022-08-19T00:24:10;23.30;94.40
957;DHT22;465;48.802;9.224;2022-08-19T00:26:38;23.30;94.60
957;DHT22;465;48.802;9.224;2022-08-19T00:29:06;23.20;94.60
957;DHT22;465;48.802;9.224;2022-08-19T00:31:34;23.20;94.80
957;DHT22;465;48.802;9.224;2022-08-19T00:34:02;23.20;95.00
957;DHT22;465;48.802;9.224;2022-08-19T00:36:30;23.10;95.10
957;DHT22;465;48.802;9.224;2022-08-19T00:38:58;23.10;95.20
957;DHT22;465;48.802;9.224;2022-08-19T00:41:25;23.10;95.30
957;DHT22;465;48.802;9.224;2022-08-19T00:44:02;23.10;95.40
957;DHT22;465;48.802;9.224;2022-08-19T00:46:29;23.10;95.40
957;DHT22;465;48.802;9.224;2022-08-19T00:48:57;23.10;95.60
957;DHT22;465;48.802;9.224;2022-08-19T00:51:26;23.10;95.70
957;DHT22;465;48.802;9.224;2022-08-19T00:53:54;23.10;95.80
957;DHT22;465;48.802;9.224;2022-08-19T00:56:21;23.10;95.90
957;DHT22;465;48.802;9.224;2022-08-19T00:58:48;23.00;95.90
957;DHT22;465;48.802;9.224;2022-08-19T01:01:16;23.10;96.00
957;DHT22;465;48.802;9.224;2022-08-19T01:03:42;23.10;96.00
957;DHT22;465;48.802;9.224;2022-08-19T01:06:09;23.10;95.90
957;DHT22;465;48.802;9.224;2022-08-19T01:08:37;23.10;95.90
957;DHT22;465;48.802;9.224;2022-08-19T01:11:04;23.10;96.10
957;DHT22;465;48.802;9.224;2022-08-19T01:13:33;23.00;96.20
957;DHT22;465;48.802;9.224;2022-08-19T01:16:03;23.00;96.20
957;DHT22;465;48.802;9.224;2022-08-19T01:18:32;23.10;96.30
957;DHT22;465;48.802;9.224;2022-08-19T01:21:02;23.00;96.30
957;DHT22;465;48.802;9.224;2022-08-19T01:23:33;23.00;96.50
957;DHT22;465;48.802;9.224;2022-08-19T01:26:12;23.00;96.50
957;DHT22;465;48.802;9.224;2022-08-19T01:28:40;23.10;96.50
957;DHT22;465;48.802;9.224;2022-08-19T01:31:09;23.00;96.70
957;DHT22;465;48.802;9.224;2022-08-19T01:33:37;22.90;96.70
957;DHT22;465;48.802;9.224;2022-08-19T01:36:14;22.90;96.80
957;DHT22;465;48.802;9.224;2022-08-19T01:38:43;22.90;97.10
957;DHT22;465;48.802;9.224;2022-08-19T01:41:12;22.80;97.20
957;DHT22;465;48.802;9.224;2022-08-19T01:43:39;22.80;97.30
957;DHT22;465;48.802;9.224;2022-08-19T01:46:06;22.80;97.50
957;DHT22;465;48.802;9.224;2022-08-19T01:48:34;22.80;97.60
957;DHT22;465;48.802;9.224;2022-08-19T01:51:02;22.80;97.70
957;DHT22;465;48.802;9.224;2022-08-19T01:53:29;22.80;97.80
957;DHT22;465;48.802;9.224;2022-08-19T01:55:57;22.80;97.80
957;DHT22;465;48.802;9.224;2022-08-19T01:58:27;22.80;97.90
957;DHT22;465;48.802;9.224;2022-08-19T02:00:56;22.80;97.90
957;DHT22;465;48.802;9.224;2022-08-19T02:03:23;22.80;98.00
957;DHT22;465;48.802;9.224;2022-08-19T02:05:54;22.80;98.50
957;DHT22;465;48.802;9.224;2022-08-19T02:08:22;22.80;98.30
957;DHT22;465;48.802;9.224;2022-08-19T02:10:48;22.80;98.50
957;DHT22;465;48.802;9.224;2022-08-19T02:13:17;22.80;98.60
957;DHT22;465;48.802;9.224;2022-08-19T02:15:44;22.70;98.70
957;DHT22;465;48.802;9.224;2022-08-19T02:18:11;22.70;98.90
957;DHT22;465;48.802;9.224;2022-08-19T02:20:39;22.70;99.10
957;DHT22;465;48.802;9.224;2022-08-19T02:23:07;22.60;99.30
957;DHT22;465;48.802;9.224;2022-08-19T02:25:34;22.70;99.40
957;DHT22;465;48.802;9.224;2022-08-19T02:28:01;22.60;99.60
957;DHT22;465;48.802;9.224;2022-08-19T02:30:29;22.60;99.80
957;DHT22;465;48.802;9.224;2022-08-19T02:32:56;22.50;99.90
957;DHT22;465;48.802;9.224;2022-08-19T02:35:23;22.50;99.90
957;DHT22;465;48.802;9.224;2022-08-19T02:37:51;22.50;99.90
957;DHT22;465;48.802;9.224;2022-08-19T02:40:35;22.50;99.90
957;DHT22;465;48.802;9.224;2022-08-19T02:43:03;22.50;99.90
957;DHT22;465;48.802;9.224;2022-08-19T02:45:35;22.40;99.90
957;DHT22;465;48.802;9.224;2022-08-19T02:48:04;22.40;99.90
957;DHT22;465;48.802;9.224;2022-08-19T02:50:31;22.50;99.90
957;DHT22;465;48.802;9.224;2022-08-19T02:52:58;22.40;99.90
957;DHT22;465;48.802;9.224;2022-08-19T02:55:25;22.40;99.90
957;DHT22;465;48.802;9.224;2022-08-19T02:57:52;22.40;99.90
957;DHT22;465;48.802;9.224;2022-08-19T03:00:18;22.30;99.90
957;DHT22;465;48.802;9.224;2022-08-19T03:02:47;22.30;99.90
957;DHT22;465;48.802;9.224;2022-08-19T03:05:14;22.20;99.90
957;DHT22;465;48.802;9.224;2022-08-19T03:07:41;22.20;99.90
957;DHT22;465;48.802;9.224;2022-08-19T03:10:08;22.20;99.90
957;DHT22;465;48.802;9.224;2022-08-19T03:12:36;22.10;99.90
957;DHT22;465;48.802;9.224;2022-08-19T03:15:04;22.00;99.90
957;DHT22;465;48.802;9.224;2022-08-19T03:17:31;21.90;99.90
957;DHT22;465;48.802;9.224;2022-08-19T03:20:00;22.00;99.90
957;DHT22;465;48.802;9.224;2022-08-19T03:22:26;22.00;99.90
957;DHT22;465;48.802;9.224;2022-08-19T03:24:54;22.00;99.90
957;DHT22;465;48.802;9.224;2022-08-19T03:27:20;22.00;99.90
957;DHT22;465;48.802;9.224;2022-08-19T03:29:47;22.00;99.90
957;DHT22;465;48.802;9.224;2022-08-19T03:32:14;22.00;99.90
957;DHT22;465;48.802;9.224;2022-08-19T03:34:41;22.00;99.90
957;DHT22;465;48.802;9.224;2022-08-19T03:37:11;22.00;99.90
957;DHT22;465;48.802;9.224;2022-08-19T03:39:39;22.00;99.90
957;DHT22;465;48.802;9.224;2022-08-19T03:42:06;21.90;99.90
957;DHT22;465;48.802;9.224;2022-08-19T03:44:33;22.00;99.90
957;DHT22;465;48.802;9.224;2022-08-19T03:47:02;22.00;99.90
957;DHT22;465;48.802;9.224;2022-08-19T03:49:32;21.90;99.90
957;DHT22;465;48.802;9.224;2022-08-19T03:52:00;21.90;99.90
957;DHT22;465;48.802;9.224;2022-08-19T03:54:28;21.90;99.90
957;DHT22;465;48.802;9.224;2022-08-19T03:56:57;22.00;99.90
957;DHT22;465;48.802;9.224;2022-08-19T03:59:26;21.90;99.90
957;DHT22;465;48.802;9.224;2022-08-19T04:01:54;21.90;99.90
957;DHT22;465;48.802;9.224;2022-08-19T04:04:21;21.90;99.90
957;DHT22;465;48.802;9.224;2022-08-19T04:06:48;21.90;99.90
957;DHT22;465;48.802;9.224;2022-08-19T04:09:15;21.80;99.90
957;DHT22;465;48.802;9.224;2022-08-19T04:11:45;21.80;99.90
957;DHT22;465;48.802;9.224;2022-08-19T04:14:14;21.80;99.90
957;DHT22;465;48.802;9.224;2022-08-19T04:16:41;21.80;99.90
957;DHT22;465;48.802;9.224;2022-08-19T04:19:09;21.80;99.90
957;DHT22;465;48.802;9.224;2022-08-19T04:21:36;21.90;99.90
957;DHT22;465;48.802;9.224;2022-08-19T04:24:03;21.90;99.90
957;DHT22;465;48.802;9.224;2022-08-19T04:26:33;21.90;99.90
957;DHT22;465;48.802;9.224;2022-08-19T04:29:06;21.80;99.90
957;DHT22;465;48.802;9.224;2022-08-19T04:31:33;21.80;99.90
957;DHT22;465;48.802;9.224;2022-08-19T04:34:03;21.70;99.90
957;DHT22;465;48.802;9.224;2022-08-19T04:36:32;21.80;99.90
957;DHT22;465;48.802;9.224;2022-08-19T04:39:01;21.80;99.90
957;DHT22;465;48.802;9.224;2022-08-19T04:41:29;21.80;99.90
957;DHT22;465;48.802;9.224;2022-08-19T04:44:14;21.80;99.90
957;DHT22;465;48.802;9.224;2022-08-19T04:46:43;21.80;99.90
957;DHT22;465;48.802;9.224;2022-08-19T04:49:10;21.90;99.90
957;DHT22;465;48.802;9.224;2022-08-19T04:51:40;21.90;99.90
957;DHT22;465;48.802;9.224;2022-08-19T04:54:07;21.90;99.90
957;DHT22;465;48.802;9.224;2022-08-19T04:56:34;21.90;99.90
957;DHT22;465;48.802;9.224;2022-08-19T04:59:01;21.90;99.90
957;DHT22;465;48.802;9.224;2022-08-19T05:01:32;21.90;99.90
957;DHT22;465;48.802;9.224;2022-08-19T05:04:02;21.90;99.90
957;DHT22;465;48.802;9.224;2022-08-19T05:06:30;21.90;99.90
957;DHT22;465;48.802;9.224;2022-08-19T05:08:59;21.90;99.90
957;DHT22;465;48.802;9.224;2022-08-19T05:11:29;21.90;99.90
957;DHT22;465;48.802;9.224;2022-08-19T05:13:57;21.90;99.90
957;DHT22;465;48.802;9.224;2022-08-19T05:16:26;21.90;99.90
957;DHT22;465;48.802;9.224;2022-08-19T05:18:55;22.00;99.90
957;DHT22;465;48.802;9.224;2022-08-19T05:21:40;21.90;99.90
957;DHT22;465;48.802;9.224;2022-08-19T05:24:25;22.00;99.90
957;DHT22;465;48.802;9.224;2022-08-19T05:26:53;22.00;99.90
957;DHT22;465;48.802;9.224;2022-08-19T05:29:23;22.00;99.90
957;DHT22;465;48.802;9.224;2022-08-19T05:31:51;22.00;99.90
957;DHT22;465;48.802;9.224;2022-08-19T05:34:21;22.00;99.90
957;DHT22;465;48.802;9.224;2022-08-19T05:36:51;22.00;99.90
957;DHT22;465;48.802;9.224;2022-08-19T05:39:21;22.00;99.90
957;DHT22;465;48.802;9.224;2022-08-19T05:41:49;22.00;99.90
957;DHT22;465;48.802;9.224;2022-08-19T05:44:16;22.00;99.90
957;DHT22;465;48.802;9.224;2022-08-19T05:46:44;22.00;99.90
957;DHT22;465;48.802;9.224;2022-08-19T05:49:13;22.10;99.90
957;DHT22;465;48.802;9.224;2022-08-19T05:51:42;22.10;99.90
957;DHT22;465;48.802;9.224;2022-08-19T05:54:09;22.10;99.90
957;DHT22;465;48.802;9.224;2022-08-19T05:56:42;22.10;99.90
957;DHT22;465;48.802;9.224;2022-08-19T05:59:11;22.10;99.90
957;DHT22;465;48.802;9.224;2022-08-19T06:01:39;22.10;99.90
957;DHT22;465;48.802;9.224;2022-08-19T06:04:06;22.10;99.90
957;DHT22;465;48.802;9.224;2022-08-19T06:06:34;22.10;99.90
957;DHT22;465;48.802;9.224;2022-08-19T06:09:04;22.10;99.90
957;DHT22;465;48.802;9.224;2022-08-19T06:11:36;22.00;99.90
957;DHT22;465;48.802;9.224;2022-08-19T06:14:06;22.10;99.90
957;DHT22;465;48.802;9.224;2022-08-19T06:16:34;22.10;99.90
957;DHT22;465;48.802;9.224;2022-08-19T06:19:03;22.00;99.90
957;DHT22;465;48.802;9.224;2022-08-19T06:21:32;22.00;99.90
957;DHT22;465;48.802;9.224;2022-08-19T06:23:59;22.00;99.90
957;DHT22;465;48.802;9.224;2022-08-19T06:26:27;22.00;99.90
957;DHT22;465;48.802;9.224;2022-08-19T06:28:54;22.00;99.90
957;DHT22;465;48.802;9.224;2022-08-19T06:31:26;21.80;99.90
957;DHT22;465;48.802;9.224;2022-08-19T06:33:53;21.80;99.90
957;DHT22;465;48.802;9.224;2022-08-19T06:36:26;21.70;99.90
957;DHT22;465;48.802;9.224;2022-08-19T06:39:00;21.60;99.90
957;DHT22;465;48.802;9.224;2022-08-19T06:41:48;21.50;99.90
957;DHT22;465;48.802;9.224;2022-08-19T06:44:15;21.60;99.90
957;DHT22;465;48.802;9.224;2022-08-19T06:46:45;21.60;99.90
957;DHT22;465;48.802;9.224;2022-08-19T06:49:14;21.60;99.90
957;DHT22;465;48.802;9.224;2022-08-19T06:51:42;21.60;99.90
957;DHT22;465;48.802;9.224;2022-08-19T06:54:09;21.70;99.90
957;DHT22;465;48.802;9.224;2022-08-19T06:56:37;21.70;99.90
957;DHT22;465;48.802;9.224;2022-08-19T06:59:07;21.80;99.90
957;DHT22;465;48.802;9.224;2022-08-19T07:01:36;21.80;99.90
957;DHT22;465;48.802;9.224;2022-08-19T07:04:04;21.90;99.90
957;DHT22;465;48.802;9.224;2022-08-19T07:06:31;21.90;99.90
957;DHT22;465;48.802;9.224;2022-08-19T07:08:58;22.00;99.90
957;DHT22;465;48.802;9.224;2022-08-19T07:11:25;22.00;99.90
957;DHT22;465;48.802;9.224;2022-08-19T07:13:55;22.00;99.90
957;DHT22;465;48.802;9.224;2022-08-19T07:16:23;22.10;99.90
957;DHT22;465;48.802;9.224;2022-08-19T07:18:51;22.10;99.90
957;DHT22;465;48.802;9.224;2022-08-19T07:21:23;22.20;99.90
957;DHT22;465;48.802;9.224;2022-08-19T07:23:51;22.20;99.90
957;DHT22;465;48.802;9.224;2022-08-19T07:26:23;22.20;99.90
957;DHT22;465;48.802;9.224;2022-08-19T07:28:52;22.20;99.90
957;DHT22;465;48.802;9.224;2022-08-19T07:31:21;22.20;99.90
957;DHT22;465;48.802;9.224;2022-08-19T07:33:51;22.20;99.90
957;DHT22;465;48.802;9.224;2022-08-19T07:36:23;22.20;99.90
957;DHT22;465;48.802;9.224;2022-08-19T07:38:54;22.10;99.90
957;DHT22;465;48.802;9.224;2022-08-19T07:41:24;22.10;99.90
957;DHT22;465;48.802;9.224;2022-08-19T07:43:52;22.10;99.90
957;DHT22;465;48.802;9.224;2022-08-19T08:03:17;22.00;99.90
957;DHT22;465;48.802;9.224;2022-08-19T08:05:45;22.00;99.90
957;DHT22;465;48.802;9.224;2022-08-19T08:08:31;21.90;99.90
957;DHT22;465;48.802;9.224;2022-08-19T08:11:17;21.80;99.90
957;DHT22;465;48.802;9.224;2022-08-19T08:13:44;21.70;99.90
957;DHT22;465;48.802;9.224;2022-08-19T08:16:11;21.70;99.90
957;DHT22;465;48.802;9.224;2022-08-19T08:18:38;21.70;99.90
957;DHT22;465;48.802;9.224;2022-08-19T08:21:07;21.60;99.90
957;DHT22;465;48.802;9.224;2022-08-19T08:23:36;21.70;99.90
957;DHT22;465;48.802;9.224;2022-08-19T08:26:02;21.60;99.90
957;DHT22;465;48.802;9.224;2022-08-19T08:28:30;21.70;99.90
957;DHT22;465;48.802;9.224;2022-08-19T08:30:57;21.70;99.90
957;DHT22;465;48.802;9.224;2022-08-19T08:33:27;21.70;99.90
957;DHT22;465;48.802;9.224;2022-08-19T08:35:55;21.70;99.90
957;DHT22;465;48.802;9.224;2022-08-19T08:38:22;21.70;99.90
957;DHT22;465;48.802;9.224;2022-08-19T08:40:52;21.70;99.90
957;DHT22;465;48.802;9.224;2022-08-19T08:43:27;21.70;99.90
957;DHT22;465;48.802;9.224;2022-08-19T08:46:01;21.70;99.90
957;DHT22;465;48.802;9.224;2022-08-19T08:48:37;21.90;99.90
957;DHT22;465;48.802;9.224;2022-08-19T08:51:09;22.20;99.90
957;DHT22;465;48.802;9.224;2022-08-19T08:53:36;22.50;99.90
957;DHT22;465;48.802;9.224;2022-08-19T08:56:07;22.70;99.90
957;DHT22;465;48.802;9.224;2022-08-19T08:58:45;23.00;99.90
957;DHT22;465;48.802;9.224;2022-08-19T09:01:14;23.30;99.90
957;DHT22;465;48.802;9.224;2022-08-19T09:03:42;23.70;99.90
957;DHT22;465;48.802;9.224;2022-08-19T09:06:16;23.90;99.90
957;DHT22;465;48.802;9.224;2022-08-19T09:08:52;24.10;99.90
957;DHT22;465;48.802;9.224;2022-08-19T09:11:33;24.10;99.90
957;DHT22;465;48.802;9.224;2022-08-19T09:14:10;24.20;99.90
957;DHT22;465;48.802;9.224;2022-08-19T09:16:39;24.00;99.90
957;DHT22;465;48.802;9.224;2022-08-19T09:19:08;23.90;99.90
957;DHT22;465;48.802;9.224;2022-08-19T09:21:36;23.60;99.90
957;DHT22;465;48.802;9.224;2022-08-19T09:24:05;23.40;99.90
957;DHT22;465;48.802;9.224;2022-08-19T09:26:33;23.10;99.90
957;DHT22;465;48.802;9.224;2022-08-19T09:29:00;23.00;99.90
957;DHT22;465;48.802;9.224;2022-08-19T09:31:30;22.90;99.90
957;DHT22;465;48.802;9.224;2022-08-19T09:33:58;22.90;99.90
957;DHT22;465;48.802;9.224;2022-08-19T09:36:27;22.80;99.90
957;DHT22;465;48.802;9.224;2022-08-19T09:38:57;22.80;99.90
957;DHT22;465;48.802;9.224;2022-08-19T09:41:25;22.80;99.90
957;DHT22;465;48.802;9.224;2022-08-19T09:43:55;22.80;99.90
957;DHT22;465;48.802;9.224;2022-08-19T09:46:24;22.80;99.90
957;DHT22;465;48.802;9.224;2022-08-19T09:48:51;22.80;99.90
957;DHT22;465;48.802;9.224;2022-08-19T09:51:20;22.80;99.90
957;DHT22;465;48.802;9.224;2022-08-19T09:53:49;22.80;99.90
957;DHT22;465;48.802;9.224;2022-08-19T09:56:17;22.80;99.90
957;DHT22;465;48.802;9.224;2022-08-19T09:58:44;22.90;99.90
957;DHT22;465;48.802;9.224;2022-08-19T10:01:17;22.80;99.90
957;DHT22;465;48.802;9.224;2022-08-19T10:03:47;22.80;99.90
957;DHT22;465;48.802;9.224;2022-08-19T10:06:18;22.80;99.90
957;DHT22;465;48.802;9.224;2022-08-19T10:08:45;22.80;99.90
957;DHT22;465;48.802;9.224;2022-08-19T10:11:13;22.70;99.90
957;DHT22;465;48.802;9.224;2022-08-19T10:13:42;22.70;99.90
957;DHT22;465;48.802;9.224;2022-08-19T10:16:11;22.60;99.90
957;DHT22;465;48.802;9.224;2022-08-19T10:18:40;22.60;99.90
957;DHT22;465;48.802;9.224;2022-08-19T10:21:12;22.50;99.90
957;DHT22;465;48.802;9.224;2022-08-19T10:23:41;22.60;99.90
957;DHT22;465;48.802;9.224;2022-08-19T10:26:12;22.60;99.90
957;DHT22;465;48.802;9.224;2022-08-19T10:28:39;22.70;99.90
957;DHT22;465;48.802;9.224;2022-08-19T10:31:07;22.80;99.90
957;DHT22;465;48.802;9.224;2022-08-19T10:33:35;22.90;99.90
957;DHT22;465;48.802;9.224;2022-08-19T10:36:05;23.00;99.90
957;DHT22;465;48.802;9.224;2022-08-19T10:38:32;23.10;99.90
957;DHT22;465;48.802;9.224;2022-08-19T10:41:06;23.20;99.90
957;DHT22;465;48.802;9.224;2022-08-19T10:43:33;23.20;99.90
957;DHT22;465;48.802;9.224;2022-08-19T10:46:04;23.30;99.90
957;DHT22;465;48.802;9.224;2022-08-19T10:48:31;23.30;99.90
957;DHT22;465;48.802;9.224;2022-08-19T10:50:58;23.40;99.90
957;DHT22;465;48.802;9.224;2022-08-19T10:53:44;23.60;99.90
957;DHT22;465;48.802;9.224;2022-08-19T10:56:12;23.60;99.90
957;DHT22;465;48.802;9.224;2022-08-19T10:58:56;23.60;99.90
957;DHT22;465;48.802;9.224;2022-08-19T11:01:23;23.60;99.90
957;DHT22;465;48.802;9.224;2022-08-19T11:03:50;23.50;99.90
957;DHT22;465;48.802;9.224;2022-08-19T11:06:18;23.40;99.90
957;DHT22;465;48.802;9.224;2022-08-19T11:08:47;23.30;99.90
957;DHT22;465;48.802;9.224;2022-08-19T11:11:14;23.30;99.90
957;DHT22;465;48.802;9.224;2022-08-19T11:13:42;23.30;99.90
957;DHT22;465;48.802;9.224;2022-08-19T11:16:13;23.30;99.90
957;DHT22;465;48.802;9.224;2022-08-19T11:18:43;23.40;99.90
957;DHT22;465;48.802;9.224;2022-08-19T11:21:14;23.40;99.90
957;DHT22;465;48.802;9.224;2022-08-19T11:23:42;23.40;99.90
957;DHT22;465;48.802;9.224;2022-08-19T11:26:11;23.50;99.90
957;DHT22;465;48.802;9.224;2022-08-19T11:28:50;23.60;99.90
957;DHT22;465;48.802;9.224;2022-08-19T11:31:22;23.70;99.90
957;DHT22;465;48.802;9.224;2022-08-19T11:33:49;23.70;99.90
957;DHT22;465;48.802;9.224;2022-08-19T11:36:20;23.80;99.90
957;DHT22;465;48.802;9.224;2022-08-19T11:38:47;23.90;99.90
957;DHT22;465;48.802;9.224;2022-08-19T11:41:17;24.10;99.90
957;DHT22;465;48.802;9.224;2022-08-19T11:43:44;24.30;99.90
957;DHT22;465;48.802;9.224;2022-08-19T11:46:13;24.20;99.90
957;DHT22;465;48.802;9.224;2022-08-19T11:48:40;24.00;99.90
957;DHT22;465;48.802;9.224;2022-08-19T11:51:10;23.80;99.90
957;DHT22;465;48.802;9.224;2022-08-19T11:53:37;23.70;99.90
957;DHT22;465;48.802;9.224;2022-08-19T11:56:05;23.60;99.90
957;DHT22;465;48.802;9.224;2022-08-19T11:58:35;23.40;99.90
957;DHT22;465;48.802;9.224;2022-08-19T12:01:05;23.20;99.90
957;DHT22;465;48.802;9.224;2022-08-19T12:03:33;23.10;99.90
957;DHT22;465;48.802;9.224;2022-08-19T12:06:04;23.10;99.90
957;DHT22;465;48.802;9.224;2022-08-19T12:08:31;23.10;99.90
957;DHT22;465;48.802;9.224;2022-08-19T12:10:58;23.00;99.90
957;DHT22;465;48.802;9.224;2022-08-19T12:13:26;22.90;99.90
957;DHT22;465;48.802;9.224;2022-08-19T12:15:55;22.90;99.90
957;DHT22;465;48.802;9.224;2022-08-19T12:18:22;22.90;99.90
957;DHT22;465;48.802;9.224;2022-08-19T12:20:51;22.80;99.90
957;DHT22;465;48.802;9.224;2022-08-19T12:23:18;22.80;99.90
957;DHT22;465;48.802;9.224;2022-08-19T12:25:46;22.70;99.90
957;DHT22;465;48.802;9.224;2022-08-19T12:28:15;22.80;99.90
957;DHT22;465;48.802;9.224;2022-08-19T12:30:42;22.70;99.90
957;DHT22;465;48.802;9.224;2022-08-19T12:33:10;22.70;99.90
957;DHT22;465;48.802;9.224;2022-08-19T12:35:39;22.80;99.90
957;DHT22;465;48.802;9.224;2022-08-19T12:38:06;22.80;99.90
957;DHT22;465;48.802;9.224;2022-08-19T12:40:33;22.70;99.90
957;DHT22;465;48.802;9.224;2022-08-19T12:43:00;22.70;99.90
957;DHT22;465;48.802;9.224;2022-08-19T12:45:26;22.70;99.90
957;DHT22;465;48.802;9.224;2022-08-19T12:47:53;22.60;99.90
957;DHT22;465;48.802;9.224;2022-08-19T12:50:22;22.60;99.90
957;DHT22;465;48.802;9.224;2022-08-19T12:52:48;22.60;99.90
957;DHT22;465;48.802;9.224;2022-08-19T12:55:15;22.50;99.90
957;DHT22;465;48.802;9.224;2022-08-19T12:57:43;22.60;99.90
957;DHT22;465;48.802;9.224;2022-08-19T13:00:12;22.70;99.90
957;DHT22;465;48.802;9.224;2022-08-19T13:02:41;22.70;99.90
957;DHT22;465;48.802;9.224;2022-08-19T13:05:12;22.80;99.90
957;DHT22;465;48.802;9.224;2022-08-19T13:07:41;22.80;99.90
957;DHT22;465;48.802;9.224;2022-08-19T13:10:11;22.80;99.90
957;DHT22;465;48.802;9.224;2022-08-19T13:12:38;22.90;99.90
957;DHT22;465;48.802;9.224;2022-08-19T13:15:07;22.90;99.90
957;DHT22;465;48.802;9.224;2022-08-19T13:17:35;22.80;99.90
957;DHT22;465;48.802;9.224;2022-08-19T13:20:02;22.80;99.90
957;DHT22;465;48.802;9.224;2022-08-19T13:22:30;22.60;99.90
957;DHT22;465;48.802;9.224;2022-08-19T13:24:58;22.50;99.90
957;DHT22;465;48.802;9.224;2022-08-19T13:27:25;22.50;99.90
957;DHT22;465;48.802;9.224;2022-08-19T13:29:51;22.40;99.90
957;DHT22;465;48.802;9.224;2022-08-19T13:32:35;22.40;99.90
957;DHT22;465;48.802;9.224;2022-08-19T13:35:20;22.30;99.90
957;DHT22;465;48.802;9.224;2022-08-19T13:37:46;22.40;99.90
957;DHT22;465;48.802;9.224;2022-08-19T13:40:16;22.30;99.90
957;DHT22;465;48.802;9.224;2022-08-19T13:42:45;22.20;99.90
957;DHT22;465;48.802;9.224;2022-08-19T13:45:13;22.20;99.90
957;DHT22;465;48.802;9.224;2022-08-19T13:47:40;22.10;99.90
957;DHT22;465;48.802;9.224;2022-08-19T13:50:10;21.90;99.90
957;DHT22;465;48.802;9.224;2022-08-19T13:52:37;21.80;99.90
957;DHT22;465;48.802;9.224;2022-08-19T13:55:05;21.70;99.90
957;DHT22;465;48.802;9.224;2022-08-19T13:57:34;21.60;99.90
957;DHT22;465;48.802;9.224;2022-08-19T14:00:02;21.50;99.90
957;DHT22;465;48.802;9.224;2022-08-19T14:02:29;21.40;99.90
957;DHT22;465;48.802;9.224;2022-08-19T14:04:56;21.30;99.90
957;DHT22;465;48.802;9.224;2022-08-19T14:07:24;21.20;99.90
957;DHT22;465;48.802;9.224;2022-08-19T14:09:51;21.10;99.90
957;DHT22;465;48.802;9.224;2022-08-19T14:12:19;21.10;99.90
957;DHT22;465;48.802;9.224;2022-08-19T14:14:48;21.00;99.90
957;DHT22;465;48.802;9.224;2022-08-19T14:17:15;21.00;99.90
957;DHT22;465;48.802;9.224;2022-08-19T14:19:42;21.00;99.90
957;DHT22;465;48.802;9.224;2022-08-19T14:22:09;20.90;99.90
957;DHT22;465;48.802;9.224;2022-08-19T14:24:37;20.90;99.90
957;DHT22;465;48.802;9.224;2022-08-19T14:27:05;20.90;99.90
957;DHT22;465;48.802;9.224;2022-08-19T14:29:31;20.90;99.90
957;DHT22;465;48.802;9.224;2022-08-19T14:32:00;21.00;99.90
957;DHT22;465;48.802;9.224;2022-08-19T14:34:27;21.10;99.90
957;DHT22;465;48.802;9.224;2022-08-19T14:36:53;21.10;99.90
957;DHT22;465;48.802;9.224;2022-08-19T14:39:20;21.30;99.90
957;DHT22;465;48.802;9.224;2022-08-19T14:41:46;21.40;99.90
957;DHT22;465;48.802;9.224;2022-08-19T14:44:13;21.60;99.90
957;DHT22;465;48.802;9.224;2022-08-19T14:46:40;21.80;99.90
957;DHT22;465;48.802;9.224;2022-08-19T14:49:11;21.90;99.90
957;DHT22;465;48.802;9.224;2022-08-19T14:51:38;21.90;99.90
957;DHT22;465;48.802;9.224;2022-08-19T14:54:05;21.80;99.90
957;DHT22;465;48.802;9.224;2022-08-19T14:56:31;21.80;99.90
957;DHT22;465;48.802;9.224;2022-08-19T14:59:00;21.80;99.90
957;DHT22;465;48.802;9.224;2022-08-19T15:01:27;21.80;99.90
957;DHT22;465;48.802;9.224;2022-08-19T15:03:54;21.80;99.90
957;DHT22;465;48.802;9.224;2022-08-19T15:06:25;21.80;99.90
957;DHT22;465;48.802;9.224;2022-08-19T15:08:52;21.90;99.90
957;DHT22;465;48.802;9.224;2022-08-19T15:11:22;21.90;99.90
957;DHT22;465;48.802;9.224;2022-08-19T15:13:52;22.00;99.90
957;DHT22;465;48.802;9.224;2022-08-19T15:16:19;22.10;99.90
957;DHT22;465;48.802;9.224;2022-08-19T15:18:49;22.30;99.90
957;DHT22;465;48.802;9.224;2022-08-19T15:21:17;22.40;99.90
957;DHT22;465;48.802;9.224;2022-08-19T15:23:45;22.50;99.90
957;DHT22;465;48.802;9.224;2022-08-19T15:26:13;22.80;99.90
957;DHT22;465;48.802;9.224;2022-08-19T15:28:40;22.90;99.90
957;DHT22;465;48.802;9.224;2022-08-19T15:31:07;23.10;99.90
957;DHT22;465;48.802;9.224;2022-08-19T15:33:35;23.20;99.90
957;DHT22;465;48.802;9.224;2022-08-19T15:36:03;23.30;99.90
957;DHT22;465;48.802;9.224;2022-08-19T15:38:30;23.20;99.90
957;DHT22;465;48.802;9.224;2022-08-19T15:41:00;23.10;99.90
957;DHT22;465;48.802;9.224;2022-08-19T15:43:49;23.10;99.90
957;DHT22;465;48.802;9.224;2022-08-19T15:46:17;23.10;99.90
957;DHT22;465;48.802;9.224;2022-08-19T15:48:44;23.10;99.90
957;DHT22;465;48.802;9.224;2022-08-19T15:51:11;23.10;99.90
957;DHT22;465;48.802;9.224;2022-08-19T15:53:37;23.10;99.90
957;DHT22;465;48.802;9.224;2022-08-19T15:56:07;23.30;99.90
957;DHT22;465;48.802;9.224;2022-08-19T15:58:34;23.20;99.90
957;DHT22;465;48.802;9.224;2022-08-19T16:01:19;23.20;99.90
957;DHT22;465;48.802;9.224;2022-08-19T16:04:08;23.10;99.90
957;DHT22;465;48.802;9.224;2022-08-19T16:06:54;23.00;99.90
957;DHT22;465;48.802;9.224;2022-08-19T16:09:23;22.90;99.90
957;DHT22;465;48.802;9.224;2022-08-19T16:11:54;23.00;99.90
957;DHT22;465;48.802;9.224;2022-08-19T16:14:21;22.90;99.90
957;DHT22;465;48.802;9.224;2022-08-19T16:16:48;22.90;99.90
957;DHT22;465;48.802;9.224;2022-08-19T16:19:16;23.00;99.90
957;DHT22;465;48.802;9.224;2022-08-19T16:21:46;22.90;99.90
957;DHT22;465;48.802;9.224;2022-08-19T16:24:14;22.70;99.90
957;DHT22;465;48.802;9.224;2022-08-19T16:26:43;22.60;99.90
957;DHT22;465;48.802;9.224;2022-08-19T16:29:12;22.50;99.90
957;DHT22;465;48.802;9.224;2022-08-19T16:31:41;22.60;99.90
957;DHT22;465;48.802;9.224;2022-08-19T16:34:09;22.60;99.90
957;DHT22;465;48.802;9.224;2022-08-19T16:36:36;22.70;99.90
957;DHT22;465;48.802;9.224;2022-08-19T16:39:06;22.80;99.90
957;DHT22;465;48.802;9.224;2022-08-19T16:41:33;22.80;99.90
957;DHT22;465;48.802;9.224;2022-08-19T16:44:00;22.80;99.90
957;DHT22;465;48.802;9.224;2022-08-19T16:46:28;22.70;99.90
957;DHT22;465;48.802;9.224;2022-08-19T16:48:55;22.70;99.90
957;DHT22;465;48.802;9.224;2022-08-19T16:51:22;22.60;99.90
957;DHT22;465;48.802;9.224;2022-08-19T16:53:48;22.60;99.90
957;DHT22;465;48.802;9.224;2022-08-19T16:56:18;22.60;99.90
957;DHT22;465;48.802;9.224;2022-08-19T16:58:45;22.60;99.90
957;DHT22;465;48.802;9.224;2022-08-19T17:01:12;22.60;99.90
957;DHT22;465;48.802;9.224;2022-08-19T17:03:41;22.50;99.90